Time;durP1;ratioP1;P1;durP2;ratioP2;P2;SDS_P1;SDS_P2;PMS_P1;PMS_P2;Temp;Humidity;BMP_temperature;BMP_pressure;BME280_temperature;BME280_humidity;BME280_pressure;Samples;Min_cycle;Max_cycle;Signal;HPM_P1;HPM_P2
2022/04/13 00:00:10;;;;;;;2.17;1.30;;;;;;;14.27;nan;100136.34;4985989;28;20037;-74
2022/04/13 00:02:35;;;;;;;1.73;1.00;;;;;;;14.22;nan;100139.56;5006548;28;20049;-73
2022/04/13 00:05:01;;;;;;;2.13;1.20;;;;;;;14.13;nan;100135.34;5011339;28;20053;-73
2022/04/13 00:07:26;;;;;;;2.15;1.27;;;;;;;14.03;nan;100135.63;5010500;28;20038;-74
2022/04/13 00:09:52;;;;;;;2.63;1.30;;;;;;;13.94;nan;100135.91;5011455;28;20382;-74
2022/04/13 00:12:17;;;;;;;2.50;1.40;;;;;;;13.85;nan;100142.31;5010366;28;20266;-74
2022/04/13 00:14:42;;;;;;;2.00;1.25;;;;;;;13.74;nan;100131.13;5011222;28;20033;-74
2022/04/13 00:17:08;;;;;;;2.95;1.50;;;;;;;13.64;nan;100146.53;4993295;28;20042;-73
2022/04/13 00:19:33;;;;;;;1.85;1.33;;;;;;;13.58;nan;100142.75;5010968;28;20029;-73
2022/04/13 00:21:58;;;;;;;2.25;1.25;;;;;;;13.52;nan;100140.81;5011400;28;20513;-73
2022/04/13 00:24:24;;;;;;;2.28;1.27;;;;;;;13.48;nan;100142.19;5009802;28;20146;-73
2022/04/13 00:26:49;;;;;;;2.70;1.27;;;;;;;13.42;nan;100147.38;4992931;28;20521;-73
2022/04/13 00:29:15;;;;;;;1.95;1.10;;;;;;;13.35;nan;100144.66;5008102;28;20041;-73
2022/04/13 00:31:40;;;;;;;2.78;1.50;;;;;;;13.26;nan;100146.50;5010241;28;20041;-73
2022/04/13 00:34:06;;;;;;;2.90;1.67;;;;;;;13.16;nan;100148.59;5006840;28;20042;-73
2022/04/13 00:36:31;;;;;;;2.78;1.42;;;;;;;13.07;nan;100147.00;5007759;28;20088;-73
2022/04/13 00:38:56;;;;;;;2.08;1.30;;;;;;;13.00;nan;100152.19;4990498;28;20562;-73
2022/04/13 00:41:22;;;;;;;4.20;1.38;;;;;;;12.93;nan;100154.69;4991063;28;20418;-73
2022/04/13 00:44:07;;;;;;;1.90;1.30;;;;;;;12.88;nan;100148.28;5005757;28;20042;-73
2022/04/13 00:46:33;;;;;;;2.80;1.10;;;;;;;12.84;nan;100161.06;5008008;28;20057;-73
2022/04/13 00:48:59;;;;;;;2.72;1.17;;;;;;;12.81;nan;100156.13;5005922;28;20117;-73
2022/04/13 00:51:26;;;;;;;1.65;0.80;;;;;;;12.74;nan;100158.63;5008062;28;20057;-74
2022/04/13 00:53:52;;;;;;;1.63;0.90;;;;;;;12.69;nan;100158.34;5008127;28;20064;-74
2022/04/13 00:56:23;;;;;;;1.70;0.90;;;;;;;12.65;nan;100162.31;5007650;28;20229;-73
2022/04/13 00:58:51;;;;;;;1.88;1.00;;;;;;;12.62;nan;100165.34;5006492;28;20037;-73
2022/04/13 01:01:17;;;;;;;1.98;1.05;;;;;;;12.61;nan;100170.81;5005707;28;20038;-73
2022/04/13 01:03:43;;;;;;;2.03;1.15;;;;;;;12.58;nan;100165.84;5007893;28;20441;-73
2022/04/13 01:06:10;;;;;;;2.38;1.08;;;;;;;12.54;nan;100168.88;5007474;28;20030;-75
2022/04/13 01:08:38;;;;;;;3.67;1.35;;;;;;;12.53;nan;100167.19;5007164;28;20091;-72
2022/04/13 01:11:03;;;;;;;3.03;1.23;;;;;;;12.51;nan;100169.22;5007403;28;20026;-75
2022/04/13 01:13:29;;;;;;;1.63;1.10;;;;;;;12.49;nan;100171.22;5006901;28;20088;-76
2022/04/13 01:15:54;;;;;;;3.13;1.23;;;;;;;12.47;nan;100175.84;5006303;28;20172;-76
2022/04/13 01:18:20;;;;;;;1.90;1.13;;;;;;;12.44;nan;100178.88;5007959;28;20034;-75
2022/04/13 01:20:52;;;;;;;1.95;1.25;;;;;;;12.42;nan;100177.34;5008265;28;20049;-76
2022/04/13 01:23:18;;;;;;;2.97;1.20;;;;;;;12.39;nan;100173.22;5005612;28;20042;-74
2022/04/13 01:25:50;;;;;;;1.52;1.00;;;;;;;12.39;nan;100167.91;5007882;28;20034;-75
2022/04/13 01:28:16;;;;;;;2.55;1.50;;;;;;;12.41;nan;100165.13;5005461;28;20092;-75
2022/04/13 01:30:42;;;;;;;4.20;2.10;;;;;;;12.42;nan;100158.78;5008256;28;20108;-75
2022/04/13 01:33:08;;;;;;;8.70;3.40;;;;;;;12.43;nan;100169.25;4988652;28;20599;-75
2022/04/13 01:35:33;;;;;;;10.85;4.03;;;;;;;12.41;nan;100171.22;5007228;28;20048;-75
2022/04/13 01:37:59;;;;;;;11.45;4.18;;;;;;;12.37;nan;100169.94;5008100;28;20418;-75
2022/04/13 01:40:24;;;;;;;11.93;4.95;;;;;;;12.34;nan;100170.28;5008456;28;20034;-73
2022/04/13 01:42:50;;;;;;;14.18;5.07;;;;;;;12.31;nan;100174.09;5010605;28;20037;-76
2022/04/13 01:45:19;;;;;;;12.90;5.47;;;;;;;12.29;nan;100172.63;5010461;28;20236;-75
2022/04/13 01:47:51;;;;;;;13.50;5.22;;;;;;;12.28;nan;100184.22;5008646;28;20029;-75
2022/04/13 01:50:18;;;;;;;11.90;4.65;;;;;;;12.27;nan;100183.38;4992991;28;20654;-74
2022/04/13 01:52:45;;;;;;;11.15;3.95;;;;;;;12.31;nan;100189.19;5012009;28;20061;-75
2022/04/13 01:55:11;;;;;;;9.00;3.15;;;;;;;12.30;nan;100185.72;5011024;28;20034;-74
2022/04/13 01:57:39;;;;;;;6.00;2.92;;;;;;;12.32;nan;100194.31;5011245;28;20033;-73
2022/04/13 02:00:06;;;;;;;5.88;3.10;;;;;;;12.33;nan;100200.44;5013974;28;20053;-76
2022/04/13 02:02:32;;;;;;;5.90;2.40;;;;;;;12.30;nan;100198.16;5010803;28;20833;-75
2022/04/13 02:04:57;;;;;;;4.70;2.25;;;;;;;12.25;nan;100198.66;5012647;28;20073;-73
2022/04/13 02:07:23;;;;;;;4.55;2.00;;;;;;;12.19;nan;100201.97;5009599;28;20068;-76
2022/04/13 02:09:48;;;;;;;3.70;1.80;;;;;;;12.14;nan;100208.78;5009710;28;20137;-75
2022/04/13 02:12:13;;;;;;;2.78;1.80;;;;;;;12.10;nan;100203.81;5009659;28;20041;-74
2022/04/13 02:14:38;;;;;;;2.55;1.88;;;;;;;12.08;nan;100197.03;5010960;28;20053;-75
2022/04/13 02:17:04;;;;;;;2.60;1.58;;;;;;;12.04;nan;100207.16;5010927;28;20518;-75
2022/04/13 02:19:30;;;;;;;3.10;1.77;;;;;;;12.04;nan;100206.34;5009392;28;20042;-76
2022/04/13 02:21:55;;;;;;;2.22;1.50;;;;;;;11.99;nan;100201.53;5010889;28;20042;-75
2022/04/13 02:24:20;;;;;;;2.58;1.42;;;;;;;11.94;nan;100201.22;5008482;28;20232;-75
2022/04/13 02:26:46;;;;;;;2.00;1.40;;;;;;;11.88;nan;100196.59;5010678;28;20494;-75
2022/04/13 02:29:11;;;;;;;2.47;1.10;;;;;;;11.84;nan;100201.34;5005603;28;20049;-75
2022/04/13 02:31:36;;;;;;;2.10;1.20;;;;;;;11.81;nan;100207.00;5011140;28;20075;-74
2022/04/13 02:34:04;;;;;;;2.75;1.27;;;;;;;11.81;nan;100198.22;5010566;28;20034;-74
2022/04/13 02:36:30;;;;;;;1.80;1.15;;;;;;;11.81;nan;100200.88;5008974;28;20514;-75
2022/04/13 02:38:55;;;;;;;2.45;1.20;;;;;;;11.77;nan;100199.53;5010131;28;20494;-75
2022/04/13 02:41:21;;;;;;;3.08;1.50;;;;;;;11.75;nan;100199.72;5010356;28;20044;-74
2022/04/13 02:43:46;;;;;;;2.38;1.40;;;;;;;11.72;nan;100202.69;5011758;28;20042;-75
2022/04/13 02:46:12;;;;;;;2.28;1.38;;;;;;;11.69;nan;100201.19;5004448;28;20038;-76
2022/04/13 02:48:37;;;;;;;4.03;1.90;;;;;;;11.65;nan;100209.66;5012909;28;20042;-74
2022/04/13 02:51:03;;;;;;;4.97;2.40;;;;;;;11.63;nan;100208.97;5010387;28;20030;-76
2022/04/13 02:53:28;;;;;;;3.50;2.10;;;;;;;11.58;nan;100220.06;5008184;28;20092;-75
2022/04/13 02:55:54;;;;;;;3.72;2.17;;;;;;;11.55;nan;100231.00;5008276;28;20046;-75
2022/04/13 02:58:19;;;;;;;3.30;2.00;;;;;;;11.50;nan;100217.44;5008077;28;20505;-75
2022/04/13 03:00:45;;;;;;;3.17;1.60;;;;;;;11.43;nan;100211.16;5009099;28;20474;-75
2022/04/13 03:03:10;;;;;;;5.93;2.55;;;;;;;11.37;nan;100225.03;5006816;28;20518;-75
2022/04/13 03:05:37;;;;;;;13.65;4.68;;;;;;;11.31;nan;100225.69;5010085;28;20037;-75
2022/04/13 03:08:03;;;;;;;29.83;9.48;;;;;;;11.19;nan;100225.19;5009723;28;20034;-74
2022/04/13 03:10:28;;;;;;;28.58;9.85;;;;;;;11.13;nan;100223.19;5008324;28;20040;-74
2022/04/13 03:12:53;;;;;;;23.23;8.27;;;;;;;11.09;nan;100221.88;5010207;28;20034;-74
2022/04/13 03:15:22;;;;;;;22.40;7.85;;;;;;;11.04;nan;100225.81;5008878;28;20046;-75
2022/04/13 03:17:48;;;;;;;18.98;7.72;;;;;;;11.04;nan;100225.81;5008404;28;20042;-74
2022/04/13 03:20:13;;;;;;;30.63;9.88;;;;;;;11.00;nan;100231.59;5008862;28;20104;-75
2022/04/13 03:22:38;;;;;;;20.13;7.47;;;;;;;10.97;nan;100227.47;5010098;28;20398;-75
2022/04/13 03:25:04;;;;;;;18.10;7.20;;;;;;;10.96;nan;100235.56;5008846;28;20519;-75
2022/04/13 03:27:30;;;;;;;11.98;5.50;;;;;;;10.95;nan;100241.84;4993662;28;20029;-74
2022/04/13 03:29:55;;;;;;;9.90;4.38;;;;;;;10.96;nan;100230.25;5011933;28;20037;-74
2022/04/13 03:32:20;;;;;;;6.88;3.50;;;;;;;10.96;nan;100232.91;5008349;28;20123;-75
2022/04/13 03:34:46;;;;;;;6.85;3.00;;;;;;;10.98;nan;100239.69;5009997;28;20103;-76
2022/04/13 03:37:11;;;;;;;4.22;2.38;;;;;;;10.99;nan;100233.44;5008701;28;20442;-75
2022/04/13 03:39:36;;;;;;;4.13;2.20;;;;;;;10.95;nan;100233.91;5008748;28;20038;-75
2022/04/13 03:42:02;;;;;;;4.43;2.30;;;;;;;10.87;nan;100229.44;5008486;28;20034;-75
2022/04/13 03:44:28;;;;;;;5.10;2.90;;;;;;;10.79;nan;100238.16;5010195;28;20041;-74
2022/04/13 03:46:53;;;;;;;5.38;3.03;;;;;;;10.70;nan;100233.00;5008744;28;20034;-74
2022/04/13 03:49:19;;;;;;;4.72;2.28;;;;;;;10.62;nan;100231.16;5007817;28;20033;-74
2022/04/13 03:51:44;;;;;;;4.93;2.67;;;;;;;10.53;nan;100227.63;5009359;28;20049;-75
2022/04/13 03:54:09;;;;;;;5.43;3.10;;;;;;;10.44;nan;100233.03;5008085;28;20079;-76
2022/04/13 03:56:36;;;;;;;4.57;2.72;;;;;;;10.38;nan;100235.34;5008004;28;20654;-74
2022/04/13 03:59:03;;;;;;;6.25;2.90;;;;;;;10.30;nan;100230.03;5008379;28;20112;-74
2022/04/13 04:01:28;;;;;;;3.92;2.35;;;;;;;10.26;nan;100235.75;4989912;28;20571;-75
2022/04/13 04:03:54;;;;;;;4.93;2.42;;;;;;;10.21;nan;100233.56;5009369;28;20042;-76
2022/04/13 04:06:20;;;;;;;2.92;1.90;;;;;;;10.19;nan;100224.97;5007694;28;20030;-74
2022/04/13 04:08:46;;;;;;;3.08;1.75;;;;;;;10.16;nan;100234.03;5010843;28;20072;-76
2022/04/13 04:11:11;;;;;;;2.60;2.10;;;;;;;10.11;nan;100233.69;5009346;28;20156;-76
2022/04/13 04:13:37;;;;;;;5.00;2.38;;;;;;;10.09;nan;100226.91;5009234;28;20044;-77
2022/04/13 04:16:03;;;;;;;3.17;2.05;;;;;;;10.07;nan;100231.50;5007723;28;20108;-75
2022/04/13 04:18:28;;;;;;;4.15;2.38;;;;;;;10.02;nan;100225.84;5006469;28;20049;-75
2022/04/13 04:20:53;;;;;;;3.58;2.25;;;;;;;9.98;nan;100231.44;5007388;28;20038;-75
2022/04/13 04:23:19;;;;;;;3.33;1.80;;;;;;;9.95;nan;100229.09;5008094;28;20493;-74
2022/04/13 04:25:45;;;;;;;3.45;1.92;;;;;;;9.95;nan;100223.00;5008278;28;20634;-74
2022/04/13 04:28:10;;;;;;;3.15;1.98;;;;;;;9.95;nan;100223.81;5006486;28;20534;-75
2022/04/13 04:30:40;;;;;;;2.95;2.08;;;;;;;9.97;nan;100232.44;5008082;28;20065;-75
2022/04/13 04:33:06;;;;;;;2.53;1.40;;;;;;;9.97;nan;100232.44;5007761;28;20030;-74
2022/04/13 04:35:32;;;;;;;2.28;1.70;;;;;;;9.96;nan;100229.94;5006806;28;20045;-74
2022/04/13 04:37:58;;;;;;;2.80;1.73;;;;;;;9.95;nan;100234.38;5006715;28;20044;-74
2022/04/13 04:40:24;;;;;;;3.47;2.10;;;;;;;9.95;nan;100234.38;5007634;28;20076;-75
2022/04/13 04:42:49;;;;;;;3.10;1.80;;;;;;;9.95;nan;100230.94;5007595;28;20065;-74
2022/04/13 04:45:19;;;;;;;2.72;1.50;;;;;;;9.94;nan;100235.38;5007440;28;20034;-75
2022/04/13 04:47:49;;;;;;;2.55;1.55;;;;;;;9.93;nan;100236.34;5005033;28;20037;-75
2022/04/13 04:50:21;;;;;;;2.65;1.60;;;;;;;9.95;nan;100237.03;5005912;28;20148;-75
2022/04/13 04:52:47;;;;;;;3.90;1.98;;;;;;;9.95;nan;100239.69;5006051;28;20033;-75
2022/04/13 04:55:16;;;;;;;4.60;1.80;;;;;;;9.97;nan;100250.09;5006295;28;20037;-75
2022/04/13 04:57:42;;;;;;;2.00;1.50;;;;;;;9.97;nan;100239.53;5007535;28;20042;-75
2022/04/13 05:00:12;;;;;;;2.45;1.45;;;;;;;9.96;nan;100251.91;5007432;28;20041;-74
2022/04/13 05:02:38;;;;;;;2.45;1.70;;;;;;;9.95;nan;100244.97;5005822;28;20052;-75
2022/04/13 05:05:05;;;;;;;2.28;1.50;;;;;;;9.99;nan;100253.41;5008683;28;20386;-74
2022/04/13 05:07:30;;;;;;;3.30;1.52;;;;;;;10.01;nan;100248.81;5006788;28;20034;-75
2022/04/13 05:09:56;;;;;;;3.55;2.10;;;;;;;10.05;nan;100251.97;5007341;28;20038;-75
2022/04/13 05:12:21;;;;;;;3.47;2.00;;;;;;;10.09;nan;100256.78;5005613;28;20069;-75
2022/04/13 05:14:46;;;;;;;3.03;1.83;;;;;;;10.15;nan;100252.66;5008346;28;20077;-75
2022/04/13 05:17:14;;;;;;;4.10;1.92;;;;;;;10.23;nan;100260.66;4989374;28;20053;-74
2022/04/13 05:19:39;;;;;;;3.22;1.73;;;;;;;10.31;nan;100251.97;5008232;28;20120;-74
2022/04/13 05:22:04;;;;;;;2.33;1.48;;;;;;;10.41;nan;100256.16;5009110;28;20148;-75
2022/04/13 05:24:30;;;;;;;3.13;1.35;;;;;;;10.51;nan;100257.84;5007050;28;20132;-75
2022/04/13 05:26:55;;;;;;;3.35;1.80;;;;;;;10.57;nan;100260.69;5009095;28;20518;-75
2022/04/13 05:29:23;;;;;;;3.10;2.42;;;;;;;10.61;nan;100262.06;5008833;28;20487;-75
2022/04/13 05:31:48;;;;;;;4.53;2.20;;;;;;;10.64;nan;100271.47;5007479;28;20069;-75
2022/04/13 05:34:14;;;;;;;5.10;2.10;;;;;;;10.70;nan;100267.38;5007264;28;20053;-75
2022/04/13 05:36:39;;;;;;;2.83;1.70;;;;;;;10.81;nan;100270.56;5006692;28;20041;-74
2022/04/13 05:39:04;;;;;;;2.17;1.60;;;;;;;10.95;nan;100271.75;5008064;28;20037;-76
2022/04/13 05:41:30;;;;;;;2.65;1.55;;;;;;;11.07;nan;100272.28;5006860;28;20037;-75
2022/04/13 05:43:55;;;;;;;2.75;1.60;;;;;;;11.17;nan;100274.81;4989209;28;20391;-75
2022/04/13 05:46:20;;;;;;;2.08;1.30;;;;;;;11.29;nan;100276.16;5005574;28;20498;-75
2022/04/13 05:48:47;;;;;;;2.55;1.50;;;;;;;11.37;nan;100280.63;5007006;28;20121;-75
2022/04/13 05:51:12;;;;;;;4.13;1.67;;;;;;;11.43;nan;100285.28;5007156;28;20042;-77
2022/04/13 05:53:37;;;;;;;4.88;2.45;;;;;;;11.39;nan;100286.59;5005741;28;20038;-75
2022/04/13 05:56:03;;;;;;;4.68;2.33;;;;;;;11.53;nan;100287.78;5006155;28;20060;-76
2022/04/13 05:58:28;;;;;;;3.03;2.13;;;;;;;11.69;nan;100288.59;5006615;28;20041;-75
2022/04/13 06:00:55;;;;;;;3.25;2.20;;;;;;;11.85;nan;100298.41;5006578;28;20042;-77
2022/04/13 06:03:23;;;;;;;2.25;1.60;;;;;;;12.03;nan;100302.72;5008035;28;20100;-76
2022/04/13 06:05:48;;;;;;;2.33;1.65;;;;;;;12.19;nan;100297.41;5006895;28;20022;-75
2022/04/13 06:08:14;;;;;;;2.40;1.45;;;;;;;12.36;nan;100298.19;5007685;28;20522;-75
2022/04/13 06:10:39;;;;;;;3.35;1.77;;;;;;;12.52;nan;100300.00;4990192;28;20049;-75
2022/04/13 06:13:05;;;;;;;2.47;1.58;;;;;;;12.69;nan;100303.44;5008901;28;20034;-75
2022/04/13 06:15:31;;;;;;;3.42;1.50;;;;;;;12.84;nan;100307.00;5009467;28;20149;-75
2022/04/13 06:17:57;;;;;;;3.75;1.60;;;;;;;13.06;nan;100315.22;5009624;28;20121;-75
2022/04/13 06:20:23;;;;;;;5.15;1.70;;;;;;;13.31;nan;100321.25;5010465;28;20066;-76
2022/04/13 06:22:48;;;;;;;2.40;1.30;;;;;;;13.54;nan;100323.97;5008766;28;20109;-75
2022/04/13 06:25:13;;;;;;;5.97;1.70;;;;;;;13.78;nan;100323.78;5007398;28;20178;-76
2022/04/13 06:27:40;;;;;;;2.28;1.40;;;;;;;14.00;nan;100323.94;5007838;28;20034;-75
2022/04/13 06:30:07;;;;;;;2.58;1.55;;;;;;;14.16;nan;100321.13;5004699;28;20050;-76
2022/04/13 06:32:42;;;;;;;4.75;1.65;;;;;;;14.37;nan;100330.25;5008297;28;20444;-75
2022/04/13 06:35:11;;;;;;;2.50;1.42;;;;;;;14.57;nan;100333.25;5010559;28;20045;-75
2022/04/13 06:37:38;;;;;;;3.03;1.42;;;;;;;14.76;nan;100329.22;5009822;28;20127;-75
2022/04/13 06:40:05;;;;;;;2.50;1.50;;;;;;;14.90;nan;100328.38;5009382;28;20210;-75
2022/04/13 06:42:36;;;;;;;1.60;1.00;;;;;;;15.16;nan;100332.38;4992157;28;20048;-75
2022/04/13 06:45:02;;;;;;;2.03;1.42;;;;;;;15.39;nan;100333.06;5010098;28;20037;-76
2022/04/13 06:47:29;;;;;;;2.97;1.33;;;;;;;15.64;nan;100346.06;5012383;28;20030;-76
2022/04/13 06:49:54;;;;;;;1.63;1.10;;;;;;;15.90;nan;100350.84;5012101;28;20486;-75
2022/04/13 06:52:20;;;;;;;2.50;1.35;;;;;;;16.18;nan;100344.72;5008740;28;20056;-76
2022/04/13 06:54:45;;;;;;;4.43;1.45;;;;;;;16.51;nan;100363.66;5009063;28;20032;-76
2022/04/13 06:57:10;;;;;;;3.55;1.17;;;;;;;16.88;nan;100356.31;5009626;28;20044;-78
2022/04/13 06:59:35;;;;;;;2.13;1.45;;;;;;;17.22;nan;100352.78;5009748;28;20434;-75
2022/04/13 07:02:01;;;;;;;2.47;1.30;;;;;;;17.45;nan;100360.47;5007695;28;20499;-77
2022/04/13 07:04:26;;;;;;;2.97;1.45;;;;;;;17.66;nan;100361.34;5008821;28;20329;-76
2022/04/13 07:06:52;;;;;;;3.53;2.25;;;;;;;17.77;nan;100356.22;5009383;28;20038;-77
2022/04/13 07:09:18;;;;;;;4.45;2.53;;;;;;;17.90;nan;100362.63;5008508;28;20094;-76
2022/04/13 07:11:44;;;;;;;4.13;2.50;;;;;;;18.08;nan;100372.75;5007426;28;20042;-76
2022/04/13 07:14:09;;;;;;;5.93;3.05;;;;;;;18.17;nan;100379.56;5009444;28;20041;-76
2022/04/13 07:16:34;;;;;;;4.78;2.75;;;;;;;18.34;nan;100371.94;5008343;28;20038;-76
2022/04/13 07:19:00;;;;;;;6.40;3.45;;;;;;;18.37;nan;100372.34;5010009;28;20507;-76
2022/04/13 07:21:25;;;;;;;7.77;3.50;;;;;;;18.41;nan;100380.78;5008362;28;20080;-76
2022/04/13 07:23:50;;;;;;;8.98;4.00;;;;;;;18.40;nan;100381.81;4992087;28;20300;-76
2022/04/13 07:26:16;;;;;;;9.35;3.70;;;;;;;18.27;nan;100379.16;5007673;28;20034;-76
2022/04/13 07:28:42;;;;;;;7.03;3.25;;;;;;;18.27;nan;100382.63;5005676;28;20061;-77
2022/04/13 07:31:08;;;;;;;5.72;2.90;;;;;;;18.22;nan;100374.41;5008629;28;20034;-76
2022/04/13 07:33:33;;;;;;;4.53;2.63;;;;;;;18.22;nan;100385.13;5008667;28;20104;-76
2022/04/13 07:35:58;;;;;;;4.18;2.55;;;;;;;18.46;nan;100391.69;5008215;28;20034;-76
2022/04/13 07:38:24;;;;;;;4.20;2.10;;;;;;;18.61;nan;100399.50;5007690;28;20132;-77
2022/04/13 07:40:49;;;;;;;5.38;1.90;;;;;;;18.83;nan;100398.28;5008448;28;20514;-75
2022/04/13 07:43:15;;;;;;;3.47;2.07;;;;;;;18.97;nan;100395.56;5009062;28;20459;-75
2022/04/13 07:45:41;;;;;;;4.07;2.13;;;;;;;18.89;nan;100405.47;5009396;28;20292;-76
2022/04/13 07:48:07;;;;;;;4.35;1.95;;;;;;;18.88;nan;100417.22;5007205;28;20060;-76
2022/04/13 07:50:32;;;;;;;3.40;1.70;;;;;;;18.85;nan;100412.31;5007484;28;20034;-75
2022/04/13 07:52:58;;;;;;;3.65;2.03;;;;;;;18.81;nan;100405.72;5009912;28;20058;-76
2022/04/13 07:55:24;;;;;;;4.28;2.78;;;;;;;18.80;nan;100409.41;5008824;28;20069;-77
2022/04/13 07:57:49;;;;;;;3.35;2.30;;;;;;;18.81;nan;100407.56;5009721;28;20042;-74
2022/04/13 08:00:15;;;;;;;3.80;2.13;;;;;;;18.91;nan;100425.88;5008320;28;20499;-74
2022/04/13 08:02:41;;;;;;;3.35;1.95;;;;;;;19.14;nan;100425.41;5010559;28;20498;-76
2022/04/13 08:05:07;;;;;;;3.38;1.90;;;;;;;19.22;nan;100428.69;5010178;28;20046;-74
2022/04/13 08:07:34;;;;;;;5.20;1.92;;;;;;;19.26;nan;100427.25;5009595;28;20041;-73
2022/04/13 08:09:59;;;;;;;3.60;1.85;;;;;;;19.27;nan;100434.25;5009263;28;20026;-73
2022/04/13 08:12:28;;;;;;;3.17;1.90;;;;;;;19.53;nan;100440.53;5009003;28;20502;-77
2022/04/13 08:14:54;;;;;;;3.03;2.00;;;;;;;19.71;nan;100443.38;5006455;28;20037;-76
2022/04/13 08:17:19;;;;;;;4.00;2.10;;;;;;;19.73;nan;100443.16;4990537;28;20042;-74
2022/04/13 08:19:44;;;;;;;3.70;2.10;;;;;;;19.61;nan;100445.66;5008913;28;20030;-74
2022/04/13 08:22:10;;;;;;;4.90;2.10;;;;;;;19.67;nan;100449.38;5008523;28;20529;-75
2022/04/13 08:24:35;;;;;;;4.60;1.90;;;;;;;19.60;nan;100445.88;5008838;28;20057;-74
2022/04/13 08:27:02;;;;;;;3.63;2.50;;;;;;;19.51;nan;100454.16;5009411;28;20041;-75
2022/04/13 08:29:27;;;;;;;5.25;2.50;;;;;;;19.60;nan;100456.63;5005653;28;20125;-73
2022/04/13 08:31:52;;;;;;;3.65;2.33;;;;;;;19.90;nan;100460.44;5010348;28;20458;-73
2022/04/13 08:34:17;;;;;;;3.38;2.30;;;;;;;20.34;nan;100453.31;5008249;28;20033;-75
2022/04/13 08:36:43;;;;;;;5.82;2.67;;;;;;;20.49;nan;100452.16;5009707;28;20050;-74
2022/04/13 08:39:13;;;;;;;3.75;2.53;;;;;;;20.93;nan;100456.56;5009381;28;20445;-74
2022/04/13 08:41:44;;;;;;;3.07;2.10;;;;;;;21.72;nan;100464.00;5009666;28;20556;-75
2022/04/13 08:44:24;;;;;;;3.15;2.25;;;;;;;22.54;nan;100461.56;4990368;28;20088;-75
2022/04/13 08:46:55;;;;;;;4.03;2.20;;;;;;;23.24;nan;100468.03;5007262;28;20037;-75
2022/04/13 08:49:21;;;;;;;4.40;2.10;;;;;;;23.49;nan;100470.47;5006888;28;20038;-77
2022/04/13 08:51:47;;;;;;;3.53;2.30;;;;;;;23.88;nan;100463.44;5008663;28;20036;-74
2022/04/13 08:54:21;;;;;;;4.75;2.80;;;;;;;24.13;nan;100465.78;5007104;28;20498;-76
2022/04/13 08:56:50;;;;;;;3.60;2.33;;;;;;;24.71;nan;100469.19;5008890;28;20121;-77
2022/04/13 08:59:27;;;;;;;2.85;2.10;;;;;;;25.24;nan;100458.06;5006230;28;20117;-76
2022/04/13 09:02:18;;;;;;;4.15;2.78;;;;;;;25.28;nan;100462.72;5003858;28;20036;-77
2022/04/13 09:04:45;;;;;;;4.90;3.08;;;;;;;24.91;nan;100457.88;5009828;28;20034;-74
2022/04/13 09:07:13;;;;;;;4.47;2.72;;;;;;;24.81;nan;100465.81;5010385;28;20578;-74
2022/04/13 09:09:46;;;;;;;4.57;2.80;;;;;;;24.79;nan;100460.69;5011639;28;20084;-75
2022/04/13 09:12:13;;;;;;;3.40;2.60;;;;;;;25.12;nan;100456.28;5010485;28;20041;-75
2022/04/13 09:14:40;;;;;;;3.45;2.80;;;;;;;24.87;nan;100459.44;5009817;28;20284;-76
2022/04/13 09:17:07;;;;;;;3.95;2.92;;;;;;;25.34;nan;100455.50;5007494;28;20069;-76
2022/04/13 09:19:33;;;;;;;4.18;3.03;;;;;;;25.82;nan;100454.72;5007016;28;20049;-77
2022/04/13 09:21:59;;;;;;;4.30;2.90;;;;;;;25.57;nan;100454.41;5007525;28;20384;-76
2022/04/13 09:24:27;;;;;;;4.70;3.03;;;;;;;25.46;nan;100450.78;5006909;28;20041;-77
2022/04/13 09:26:53;;;;;;;5.55;3.58;;;;;;;25.40;nan;100455.28;5008238;28;20038;-73
2022/04/13 09:29:19;;;;;;;4.90;3.35;;;;;;;25.25;nan;100457.00;5003218;28;20034;-76
2022/04/13 09:31:45;;;;;;;3.92;2.78;;;;;;;25.81;nan;100452.25;5008198;28;20372;-74
2022/04/13 09:34:10;;;;;;;4.60;3.15;;;;;;;25.70;nan;100454.03;5008109;28;20096;-77
2022/04/13 09:36:36;;;;;;;4.43;2.88;;;;;;;26.20;nan;100452.13;5007253;28;20429;-74
2022/04/13 09:39:01;;;;;;;3.78;2.67;;;;;;;26.87;nan;100440.72;5007209;28;20064;-74
2022/04/13 09:41:34;;;;;;;4.50;2.55;;;;;;;26.93;nan;100441.56;5006981;28;20132;-75
2022/04/13 09:44:00;;;;;;;4.88;2.65;;;;;;;27.11;nan;100443.03;5007247;28;20038;-74
2022/04/13 09:46:28;;;;;;;4.32;2.20;;;;;;;27.49;nan;100449.19;5007590;28;20410;-74
2022/04/13 09:49:10;;;;;;;3.72;1.80;;;;;;;27.94;nan;100447.72;5004771;28;20551;-73
2022/04/13 09:51:40;;;;;;;3.85;2.05;;;;;;;27.84;nan;100450.38;5006829;28;20503;-74
2022/04/13 09:54:12;;;;;;;4.40;2.20;;;;;;;28.34;nan;100446.94;5007705;28;20495;-74
2022/04/13 09:56:47;;;;;;;3.47;2.17;;;;;;;29.16;nan;100454.19;5007978;28;20041;-74
2022/04/13 09:59:24;;;;;;;3.97;2.40;;;;;;;29.42;nan;100439.38;5007511;28;20069;-75
2022/04/13 10:01:49;;;;;;;6.07;2.80;;;;;;;29.22;nan;100442.16;5010517;28;20053;-76
2022/04/13 10:04:29;;;;;;;3.40;2.17;;;;;;;29.76;nan;100438.66;5010043;28;20088;-76
2022/04/13 10:06:55;;;;;;;4.88;2.63;;;;;;;29.59;nan;100440.91;5009864;28;20033;-74
2022/04/13 10:09:23;;;;;;;4.68;2.70;;;;;;;29.85;nan;100434.25;5010598;28;20085;-74
2022/04/13 10:11:58;;;;;;;4.43;2.50;;;;;;;29.80;nan;100434.28;5012085;28;20057;-74
2022/04/13 10:14:23;;;;;;;4.25;2.90;;;;;;;30.02;nan;100428.41;5011525;28;20045;-74
2022/04/13 10:16:52;;;;;;;4.00;2.15;;;;;;;29.92;nan;100435.84;5011202;28;20042;-74
2022/04/13 10:19:21;;;;;;;3.95;2.80;;;;;;;30.30;nan;100438.88;5008373;28;20038;-75
2022/04/13 10:21:51;;;;;;;4.40;2.70;;;;;;;30.66;nan;100428.44;5010439;28;20068;-75
2022/04/13 10:24:32;;;;;;;3.80;2.30;;;;;;;31.20;nan;100427.31;5008842;28;20038;-75
2022/04/13 10:27:16;;;;;;;3.55;2.05;;;;;;;31.60;nan;100427.06;5012913;28;20037;-75
2022/04/13 10:29:43;;;;;;;6.72;2.53;;;;;;;31.86;nan;100419.31;5006751;28;20030;-75
2022/04/13 10:32:22;;;;;;;3.40;2.28;;;;;;;31.99;nan;100415.03;5009373;28;20077;-75
2022/04/13 10:34:57;;;;;;;3.97;2.30;;;;;;;32.38;nan;100414.66;5009468;28;20030;-76
2022/04/13 10:37:24;;;;;;;3.13;1.77;;;;;;;32.29;nan;100414.53;5006584;28;20348;-75
2022/04/13 10:39:52;;;;;;;3.53;2.03;;;;;;;32.51;nan;100413.91;5010903;28;20076;-75
2022/04/13 10:42:19;;;;;;;3.15;2.08;;;;;;;32.72;nan;100419.78;5010910;28;20062;-76
2022/04/13 10:44:53;;;;;;;3.42;2.10;;;;;;;32.08;nan;100418.72;5012815;28;20038;-75
2022/04/13 10:47:25;;;;;;;3.53;2.42;;;;;;;32.22;nan;100411.38;5009999;28;20034;-75
2022/04/13 10:49:57;;;;;;;3.92;2.22;;;;;;;32.63;nan;100415.31;5013685;28;20054;-75
2022/04/13 10:52:33;;;;;;;3.83;2.20;;;;;;;33.56;nan;100418.69;5010320;28;20033;-76
2022/04/13 10:55:07;;;;;;;4.75;2.15;;;;;;;34.10;nan;100413.31;5011879;28;20266;-76
2022/04/13 10:57:46;;;;;;;3.40;2.00;;;;;;;34.53;nan;100409.19;5009652;28;20042;-76
2022/04/13 11:00:15;;;;;;;5.15;2.47;;;;;;;33.77;nan;100408.03;5006543;28;20499;-76
2022/04/13 11:03:12;;;;;;;3.83;2.13;;;;;;;34.25;nan;100409.38;5008781;28;20368;-75
2022/04/13 11:05:40;;;;;;;2.67;1.80;;;;;;;34.43;nan;100400.09;4976980;28;20041;-75
2022/04/13 11:08:21;;;;;;;3.28;1.90;;;;;;;34.27;nan;100398.88;5010288;28;20095;-75
2022/04/13 11:10:50;;;;;;;2.08;1.40;;;;;;;34.86;nan;100396.75;5010280;28;20037;-76
2022/04/13 11:13:16;;;;;;;3.05;2.10;;;;;;;34.97;nan;100390.97;5007034;28;20045;-75
2022/04/13 11:15:45;;;;;;;2.38;1.58;;;;;;;35.58;nan;100391.88;5009375;28;20423;-75
2022/04/13 11:18:13;;;;;;;3.72;1.85;;;;;;;35.28;nan;100386.22;5010025;28;20045;-75
2022/04/13 11:20:58;;;;;;;4.57;1.85;;;;;;;35.31;nan;100384.75;5009108;28;20490;-75
2022/04/13 11:23:43;;;;;;;3.30;1.70;;;;;;;35.61;nan;100384.97;5008018;28;20064;-75
2022/04/13 11:26:09;;;;;;;3.95;2.03;;;;;;;35.64;nan;100387.88;5009226;28;20800;-75
2022/04/13 11:28:35;;;;;;;6.93;2.50;;;;;;;36.07;nan;100378.75;5006244;28;20069;-75
2022/04/13 11:31:00;;;;;;;4.13;2.10;;;;;;;35.42;nan;100383.31;4992841;28;20037;-75
2022/04/13 11:33:40;;;;;;;2.70;1.80;;;;;;;34.98;nan;100385.16;5008582;28;20045;-75
2022/04/13 11:36:05;;;;;;;4.47;2.00;;;;;;;34.83;nan;100391.91;5006556;28;20145;-74
2022/04/13 11:38:36;;;;;;;3.65;1.75;;;;;;;35.25;nan;100389.59;5006735;28;20566;-75
2022/04/13 11:41:07;;;;;;;;;;;;;;;35.31;nan;100388.31;5009765;28;20037;-75